sensor_id;sensor_type;location;lat;lon;timestamp;temperature;humidity
10702;DHT22;5402;50.004;8.246;2023-08-30T00:01:58;15.70;99.90
10702;DHT22;5402;50.004;8.246;2023-08-30T00:04:25;15.70;99.90
10702;DHT22;5402;50.004;8.246;2023-08-30T00:06:52;15.70;99.90
10702;DHT22;5402;50.004;8.246;2023-08-30T00:09:19;15.70;99.90
10702;DHT22;5402;50.004;8.246;2023-08-30T00:11:46;15.70;99.90
10702;DHT22;5402;50.004;8.246;2023-08-30T00:14:12;15.70;99.90
10702;DHT22;5402;50.004;8.246;2023-08-30T00:16:40;15.70;99.90
10702;DHT22;5402;50.004;8.246;2023-08-30T00:19:07;15.60;99.90
10702;DHT22;5402;50.004;8.246;2023-08-30T00:21:34;15.60;99.90
10702;DHT22;5402;50.004;8.246;2023-08-30T00:24:01;15.60;99.90
10702;DHT22;5402;50.004;8.246;2023-08-30T00:26:27;15.70;99.90
10702;DHT22;5402;50.004;8.246;2023-08-30T00:28:54;15.60;99.90
10702;DHT22;5402;50.004;8.246;2023-08-30T00:31:21;15.60;99.90
10702;DHT22;5402;50.004;8.246;2023-08-30T00:33:49;15.70;99.90
10702;DHT22;5402;50.004;8.246;2023-08-30T00:36:16;15.70;99.90
10702;DHT22;5402;50.004;8.246;2023-08-30T00:38:44;15.70;99.90
10702;DHT22;5402;50.004;8.246;2023-08-30T00:41:10;15.70;99.90
10702;DHT22;5402;50.004;8.246;2023-08-30T00:43:37;15.60;99.90
10702;DHT22;5402;50.004;8.246;2023-08-30T00:46:04;15.50;99.90
10702;DHT22;5402;50.004;8.246;2023-08-30T00:48:30;15.50;99.90
10702;DHT22;5402;50.004;8.246;2023-08-30T00:50:59;15.50;99.90
10702;DHT22;5402;50.004;8.246;2023-08-30T00:53:26;15.50;99.90
10702;DHT22;5402;50.004;8.246;2023-08-30T00:55:53;15.60;99.90
10702;DHT22;5402;50.004;8.246;2023-08-30T00:58:20;15.50;99.90
10702;DHT22;5402;50.004;8.246;2023-08-30T01:00:46;15.60;99.90
10702;DHT22;5402;50.004;8.246;2023-08-30T01:03:13;15.60;99.90
10702;DHT22;5402;50.004;8.246;2023-08-30T01:05:41;15.60;99.90
10702;DHT22;5402;50.004;8.246;2023-08-30T01:08:09;15.60;99.90
10702;DHT22;5402;50.004;8.246;2023-08-30T01:10:44;15.60;99.90
10702;DHT22;5402;50.004;8.246;2023-08-30T01:13:18;15.60;99.90
10702;DHT22;5402;50.004;8.246;2023-08-30T01:15:48;15.80;99.90
10702;DHT22;5402;50.004;8.246;2023-08-30T01:18:19;15.70;99.90
10702;DHT22;5402;50.004;8.246;2023-08-30T01:20:54;15.60;99.90
10702;DHT22;5402;50.004;8.246;2023-08-30T01:23:33;15.60;99.90
10702;DHT22;5402;50.004;8.246;2023-08-30T01:26:08;15.60;99.90
10702;DHT22;5402;50.004;8.246;2023-08-30T01:28:39;15.60;99.90
10702;DHT22;5402;50.004;8.246;2023-08-30T01:31:08;15.60;99.90
10702;DHT22;5402;50.004;8.246;2023-08-30T01:33:35;15.60;99.90
10702;DHT22;5402;50.004;8.246;2023-08-30T01:36:03;15.60;99.90
10702;DHT22;5402;50.004;8.246;2023-08-30T01:38:32;15.60;99.90
10702;DHT22;5402;50.004;8.246;2023-08-30T01:40:59;15.60;99.90
10702;DHT22;5402;50.004;8.246;2023-08-30T01:43:27;15.70;99.90
10702;DHT22;5402;50.004;8.246;2023-08-30T01:45:56;15.60;99.90
10702;DHT22;5402;50.004;8.246;2023-08-30T01:48:24;15.60;99.90
10702;DHT22;5402;50.004;8.246;2023-08-30T01:50:52;15.60;99.90
10702;DHT22;5402;50.004;8.246;2023-08-30T01:53:24;15.60;99.90
10702;DHT22;5402;50.004;8.246;2023-08-30T01:55:51;15.60;99.90
10702;DHT22;5402;50.004;8.246;2023-08-30T01:58:18;15.60;99.90
10702;DHT22;5402;50.004;8.246;2023-08-30T02:00:45;15.60;99.90
10702;DHT22;5402;50.004;8.246;2023-08-30T02:03:14;15.60;99.90
10702;DHT22;5402;50.004;8.246;2023-08-30T02:05:48;15.60;99.90
10702;DHT22;5402;50.004;8.246;2023-08-30T02:08:20;15.60;99.90
10702;DHT22;5402;50.004;8.246;2023-08-30T02:10:51;15.50;99.90
10702;DHT22;5402;50.004;8.246;2023-08-30T02:13:21;15.30;99.90
10702;DHT22;5402;50.004;8.246;2023-08-30T02:15:49;15.40;99.90
10702;DHT22;5402;50.004;8.246;2023-08-30T02:18:18;15.40;99.90
10702;DHT22;5402;50.004;8.246;2023-08-30T02:20:46;15.30;99.90
10702;DHT22;5402;50.004;8.246;2023-08-30T02:23:13;15.40;99.90
10702;DHT22;5402;50.004;8.246;2023-08-30T02:25:40;15.30;99.90
10702;DHT22;5402;50.004;8.246;2023-08-30T02:28:06;15.30;99.90
10702;DHT22;5402;50.004;8.246;2023-08-30T02:30:33;15.30;99.90
10702;DHT22;5402;50.004;8.246;2023-08-30T02:33:00;15.30;99.90
10702;DHT22;5402;50.004;8.246;2023-08-30T02:35:28;15.10;99.90
10702;DHT22;5402;50.004;8.246;2023-08-30T02:37:54;15.00;99.90
10702;DHT22;5402;50.004;8.246;2023-08-30T02:40:21;15.00;99.90
10702;DHT22;5402;50.004;8.246;2023-08-30T02:42:48;15.00;99.90
10702;DHT22;5402;50.004;8.246;2023-08-30T02:45:16;15.00;99.90
10702;DHT22;5402;50.004;8.246;2023-08-30T02:47:44;15.00;99.90
10702;DHT22;5402;50.004;8.246;2023-08-30T02:50:11;15.00;99.90
10702;DHT22;5402;50.004;8.246;2023-08-30T02:52:39;15.10;99.90
10702;DHT22;5402;50.004;8.246;2023-08-30T02:55:06;15.10;99.90
10702;DHT22;5402;50.004;8.246;2023-08-30T02:57:33;15.10;99.90
10702;DHT22;5402;50.004;8.246;2023-08-30T03:00:00;15.20;99.90
10702;DHT22;5402;50.004;8.246;2023-08-30T03:02:31;15.20;99.90
10702;DHT22;5402;50.004;8.246;2023-08-30T03:04:58;15.20;99.90
10702;DHT22;5402;50.004;8.246;2023-08-30T03:07:25;15.20;99.90
10702;DHT22;5402;50.004;8.246;2023-08-30T03:09:53;15.20;99.90
10702;DHT22;5402;50.004;8.246;2023-08-30T03:12:21;15.10;99.90
10702;DHT22;5402;50.004;8.246;2023-08-30T03:14:47;15.10;99.90
10702;DHT22;5402;50.004;8.246;2023-08-30T03:17:14;15.00;99.90
10702;DHT22;5402;50.004;8.246;2023-08-30T03:19:41;15.00;99.90
10702;DHT22;5402;50.004;8.246;2023-08-30T03:22:07;15.00;99.90
10702;DHT22;5402;50.004;8.246;2023-08-30T03:24:34;15.10;99.90
10702;DHT22;5402;50.004;8.246;2023-08-30T03:27:03;15.00;99.90
10702;DHT22;5402;50.004;8.246;2023-08-30T03:29:29;14.90;99.90
10702;DHT22;5402;50.004;8.246;2023-08-30T03:31:56;14.90;99.90
10702;DHT22;5402;50.004;8.246;2023-08-30T03:34:23;14.80;99.90
10702;DHT22;5402;50.004;8.246;2023-08-30T03:36:49;14.90;99.90
10702;DHT22;5402;50.004;8.246;2023-08-30T03:39:19;14.90;99.90
10702;DHT22;5402;50.004;8.246;2023-08-30T03:41:46;14.80;99.90
10702;DHT22;5402;50.004;8.246;2023-08-30T03:44:17;14.80;99.90
10702;DHT22;5402;50.004;8.246;2023-08-30T03:46:43;14.80;99.90
10702;DHT22;5402;50.004;8.246;2023-08-30T03:49:10;14.90;99.90
10702;DHT22;5402;50.004;8.246;2023-08-30T03:51:37;14.90;99.90
10702;DHT22;5402;50.004;8.246;2023-08-30T03:54:03;14.90;99.90
10702;DHT22;5402;50.004;8.246;2023-08-30T03:56:30;14.90;99.90
10702;DHT22;5402;50.004;8.246;2023-08-30T03:58:57;14.80;99.90
10702;DHT22;5402;50.004;8.246;2023-08-30T04:01:25;14.80;99.90
10702;DHT22;5402;50.004;8.246;2023-08-30T04:03:52;14.80;99.90
10702;DHT22;5402;50.004;8.246;2023-08-30T04:06:18;14.80;99.90
10702;DHT22;5402;50.004;8.246;2023-08-30T04:08:45;14.80;99.90
10702;DHT22;5402;50.004;8.246;2023-08-30T04:11:12;14.90;99.90
10702;DHT22;5402;50.004;8.246;2023-08-30T04:13:38;14.90;99.90
10702;DHT22;5402;50.004;8.246;2023-08-30T04:16:05;14.90;99.90
10702;DHT22;5402;50.004;8.246;2023-08-30T04:18:33;15.00;99.90
10702;DHT22;5402;50.004;8.246;2023-08-30T04:21:00;14.90;99.90
10702;DHT22;5402;50.004;8.246;2023-08-30T04:23:28;14.80;99.90
10702;DHT22;5402;50.004;8.246;2023-08-30T04:25:55;14.80;99.90
10702;DHT22;5402;50.004;8.246;2023-08-30T04:28:21;14.80;99.90
10702;DHT22;5402;50.004;8.246;2023-08-30T04:30:48;14.80;99.90
10702;DHT22;5402;50.004;8.246;2023-08-30T04:33:15;14.80;99.90
10702;DHT22;5402;50.004;8.246;2023-08-30T04:35:43;14.80;99.90
10702;DHT22;5402;50.004;8.246;2023-08-30T04:38:10;14.80;99.90
10702;DHT22;5402;50.004;8.246;2023-08-30T04:40:37;14.80;99.90
10702;DHT22;5402;50.004;8.246;2023-08-30T04:43:03;14.80;99.90
10702;DHT22;5402;50.004;8.246;2023-08-30T04:45:30;14.90;99.90
10702;DHT22;5402;50.004;8.246;2023-08-30T04:47:57;14.80;99.90
10702;DHT22;5402;50.004;8.246;2023-08-30T04:50:24;14.70;99.90
10702;DHT22;5402;50.004;8.246;2023-08-30T04:52:52;14.70;99.90
10702;DHT22;5402;50.004;8.246;2023-08-30T04:55:19;14.70;99.90
10702;DHT22;5402;50.004;8.246;2023-08-30T04:57:45;14.60;99.90
10702;DHT22;5402;50.004;8.246;2023-08-30T05:00:14;14.70;99.90
10702;DHT22;5402;50.004;8.246;2023-08-30T05:02:40;14.60;99.90
10702;DHT22;5402;50.004;8.246;2023-08-30T05:05:09;14.60;99.90
10702;DHT22;5402;50.004;8.246;2023-08-30T05:07:36;14.60;99.90
10702;DHT22;5402;50.004;8.246;2023-08-30T05:10:06;14.70;99.90
10702;DHT22;5402;50.004;8.246;2023-08-30T05:12:34;14.70;99.90
10702;DHT22;5402;50.004;8.246;2023-08-30T05:15:01;14.60;99.90
10702;DHT22;5402;50.004;8.246;2023-08-30T05:17:29;14.70;99.90
10702;DHT22;5402;50.004;8.246;2023-08-30T05:19:56;14.80;99.90
10702;DHT22;5402;50.004;8.246;2023-08-30T05:22:23;14.80;99.90
10702;DHT22;5402;50.004;8.246;2023-08-30T05:24:49;14.80;99.90
10702;DHT22;5402;50.004;8.246;2023-08-30T05:27:17;14.80;99.90
10702;DHT22;5402;50.004;8.246;2023-08-30T05:29:44;14.80;99.90
10702;DHT22;5402;50.004;8.246;2023-08-30T05:32:11;14.80;99.90
10702;DHT22;5402;50.004;8.246;2023-08-30T05:34:37;14.80;99.90
10702;DHT22;5402;50.004;8.246;2023-08-30T05:37:04;14.80;99.90
10702;DHT22;5402;50.004;8.246;2023-08-30T05:39:31;14.80;99.90
10702;DHT22;5402;50.004;8.246;2023-08-30T05:41:57;14.80;99.90
10702;DHT22;5402;50.004;8.246;2023-08-30T05:44:25;14.80;99.90
10702;DHT22;5402;50.004;8.246;2023-08-30T05:46:52;14.90;99.90
10702;DHT22;5402;50.004;8.246;2023-08-30T05:49:19;14.80;99.90
10702;DHT22;5402;50.004;8.246;2023-08-30T05:51:46;14.80;99.90
10702;DHT22;5402;50.004;8.246;2023-08-30T05:54:13;14.80;99.90
10702;DHT22;5402;50.004;8.246;2023-08-30T05:56:40;14.90;99.90
10702;DHT22;5402;50.004;8.246;2023-08-30T05:59:07;15.10;99.90
10702;DHT22;5402;50.004;8.246;2023-08-30T06:01:36;15.10;99.90
10702;DHT22;5402;50.004;8.246;2023-08-30T06:04:03;15.20;99.90
10702;DHT22;5402;50.004;8.246;2023-08-30T06:06:30;15.30;99.90
10702;DHT22;5402;50.004;8.246;2023-08-30T06:08:57;15.40;99.90
10702;DHT22;5402;50.004;8.246;2023-08-30T06:11:24;15.40;99.90
10702;DHT22;5402;50.004;8.246;2023-08-30T06:13:51;15.40;99.90
10702;DHT22;5402;50.004;8.246;2023-08-30T06:16:17;15.40;99.90
10702;DHT22;5402;50.004;8.246;2023-08-30T06:18:45;15.30;99.90
10702;DHT22;5402;50.004;8.246;2023-08-30T06:21:12;15.30;99.90
10702;DHT22;5402;50.004;8.246;2023-08-30T06:23:39;15.10;99.90
10702;DHT22;5402;50.004;8.246;2023-08-30T06:26:06;15.30;99.90
10702;DHT22;5402;50.004;8.246;2023-08-30T06:28:33;15.40;99.90
10702;DHT22;5402;50.004;8.246;2023-08-30T06:31:00;15.40;99.90
10702;DHT22;5402;50.004;8.246;2023-08-30T06:33:27;15.40;99.90
10702;DHT22;5402;50.004;8.246;2023-08-30T06:35:55;15.50;99.90
10702;DHT22;5402;50.004;8.246;2023-08-30T06:38:23;15.60;99.90
10702;DHT22;5402;50.004;8.246;2023-08-30T06:40:50;15.60;99.90
10702;DHT22;5402;50.004;8.246;2023-08-30T06:43:16;15.70;99.90
10702;DHT22;5402;50.004;8.246;2023-08-30T06:45:43;15.70;99.90
10702;DHT22;5402;50.004;8.246;2023-08-30T06:48:11;15.80;99.90
10702;DHT22;5402;50.004;8.246;2023-08-30T06:50:38;15.80;99.90
10702;DHT22;5402;50.004;8.246;2023-08-30T06:53:06;15.90;99.90
10702;DHT22;5402;50.004;8.246;2023-08-30T06:55:34;15.80;99.90
10702;DHT22;5402;50.004;8.246;2023-08-30T06:58:02;15.80;99.90
10702;DHT22;5402;50.004;8.246;2023-08-30T07:00:29;15.90;99.90
10702;DHT22;5402;50.004;8.246;2023-08-30T07:02:56;16.10;99.90
10702;DHT22;5402;50.004;8.246;2023-08-30T07:05:23;16.20;99.90
10702;DHT22;5402;50.004;8.246;2023-08-30T07:07:49;16.20;99.90
10702;DHT22;5402;50.004;8.246;2023-08-30T07:10:18;16.20;99.90
10702;DHT22;5402;50.004;8.246;2023-08-30T07:12:45;16.30;99.90
10702;DHT22;5402;50.004;8.246;2023-08-30T07:15:14;16.40;99.90
10702;DHT22;5402;50.004;8.246;2023-08-30T07:17:43;16.60;99.90
10702;DHT22;5402;50.004;8.246;2023-08-30T07:20:11;16.50;99.90
10702;DHT22;5402;50.004;8.246;2023-08-30T07:22:38;16.60;99.90
10702;DHT22;5402;50.004;8.246;2023-08-30T07:25:05;16.60;99.90
10702;DHT22;5402;50.004;8.246;2023-08-30T07:27:35;16.70;99.90
10702;DHT22;5402;50.004;8.246;2023-08-30T07:30:03;16.70;99.90
10702;DHT22;5402;50.004;8.246;2023-08-30T07:32:30;16.80;99.90
10702;DHT22;5402;50.004;8.246;2023-08-30T07:34:57;16.80;99.90
10702;DHT22;5402;50.004;8.246;2023-08-30T07:37:24;16.80;99.90
10702;DHT22;5402;50.004;8.246;2023-08-30T07:39:51;16.90;99.90
10702;DHT22;5402;50.004;8.246;2023-08-30T07:42:18;17.10;99.90
10702;DHT22;5402;50.004;8.246;2023-08-30T07:44:47;17.00;99.90
10702;DHT22;5402;50.004;8.246;2023-08-30T07:47:13;17.00;99.90
10702;DHT22;5402;50.004;8.246;2023-08-30T07:49:40;17.10;99.90
10702;DHT22;5402;50.004;8.246;2023-08-30T07:52:08;17.10;99.90
10702;DHT22;5402;50.004;8.246;2023-08-30T07:54:39;17.10;99.90
10702;DHT22;5402;50.004;8.246;2023-08-30T07:57:05;17.20;99.90
10702;DHT22;5402;50.004;8.246;2023-08-30T07:59:33;17.10;99.90
10702;DHT22;5402;50.004;8.246;2023-08-30T08:02:01;17.40;99.90
10702;DHT22;5402;50.004;8.246;2023-08-30T08:04:31;17.40;99.90
10702;DHT22;5402;50.004;8.246;2023-08-30T08:06:58;17.40;99.90
10702;DHT22;5402;50.004;8.246;2023-08-30T08:09:25;17.20;99.90
10702;DHT22;5402;50.004;8.246;2023-08-30T08:11:53;17.30;99.90
10702;DHT22;5402;50.004;8.246;2023-08-30T08:14:21;17.40;99.90
10702;DHT22;5402;50.004;8.246;2023-08-30T08:16:48;17.50;99.90
10702;DHT22;5402;50.004;8.246;2023-08-30T08:19:16;17.30;99.90
10702;DHT22;5402;50.004;8.246;2023-08-30T08:21:43;17.40;99.90
10702;DHT22;5402;50.004;8.246;2023-08-30T08:24:09;17.60;99.90
10702;DHT22;5402;50.004;8.246;2023-08-30T08:26:36;17.70;99.90
10702;DHT22;5402;50.004;8.246;2023-08-30T08:29:03;17.80;99.90
10702;DHT22;5402;50.004;8.246;2023-08-30T08:31:30;17.90;99.90
10702;DHT22;5402;50.004;8.246;2023-08-30T08:34:10;17.90;99.90
10702;DHT22;5402;50.004;8.246;2023-08-30T08:36:39;17.90;99.90
10702;DHT22;5402;50.004;8.246;2023-08-30T08:39:07;17.90;99.90
10702;DHT22;5402;50.004;8.246;2023-08-30T08:41:38;18.00;99.90
10702;DHT22;5402;50.004;8.246;2023-08-30T08:44:06;17.90;99.90
10702;DHT22;5402;50.004;8.246;2023-08-30T08:46:34;18.00;99.90
10702;DHT22;5402;50.004;8.246;2023-08-30T08:49:05;18.00;99.90
10702;DHT22;5402;50.004;8.246;2023-08-30T08:51:34;18.00;99.90
10702;DHT22;5402;50.004;8.246;2023-08-30T08:54:04;18.20;99.90
10702;DHT22;5402;50.004;8.246;2023-08-30T08:56:31;18.30;99.90
10702;DHT22;5402;50.004;8.246;2023-08-30T08:59:00;18.40;99.90
10702;DHT22;5402;50.004;8.246;2023-08-30T09:01:28;18.60;99.90
10702;DHT22;5402;50.004;8.246;2023-08-30T09:03:58;19.00;99.90
10702;DHT22;5402;50.004;8.246;2023-08-30T09:06:25;18.80;99.90
10702;DHT22;5402;50.004;8.246;2023-08-30T09:08:52;18.90;99.90
10702;DHT22;5402;50.004;8.246;2023-08-30T09:11:20;18.90;99.90
10702;DHT22;5402;50.004;8.246;2023-08-30T09:13:47;18.90;99.90
10702;DHT22;5402;50.004;8.246;2023-08-30T09:16:14;19.00;99.90
10702;DHT22;5402;50.004;8.246;2023-08-30T09:18:41;18.90;99.90
10702;DHT22;5402;50.004;8.246;2023-08-30T09:21:08;19.00;99.90
10702;DHT22;5402;50.004;8.246;2023-08-30T09:23:35;19.30;99.90
10702;DHT22;5402;50.004;8.246;2023-08-30T09:26:02;19.70;99.90
10702;DHT22;5402;50.004;8.246;2023-08-30T09:28:31;20.00;99.90
10702;DHT22;5402;50.004;8.246;2023-08-30T09:30:58;20.10;99.90
10702;DHT22;5402;50.004;8.246;2023-08-30T09:33:31;20.20;99.90
10702;DHT22;5402;50.004;8.246;2023-08-30T09:35:58;20.30;99.90
10702;DHT22;5402;50.004;8.246;2023-08-30T09:38:26;20.10;99.90
10702;DHT22;5402;50.004;8.246;2023-08-30T09:41:02;20.30;99.90
10702;DHT22;5402;50.004;8.246;2023-08-30T09:43:32;20.50;99.90
10702;DHT22;5402;50.004;8.246;2023-08-30T09:46:03;20.50;99.90
10702;DHT22;5402;50.004;8.246;2023-08-30T09:48:30;20.60;99.90
10702;DHT22;5402;50.004;8.246;2023-08-30T09:50:58;20.80;99.90
10702;DHT22;5402;50.004;8.246;2023-08-30T09:53:26;20.90;99.90
10702;DHT22;5402;50.004;8.246;2023-08-30T09:55:53;20.90;99.90
10702;DHT22;5402;50.004;8.246;2023-08-30T09:58:21;21.10;99.90
10702;DHT22;5402;50.004;8.246;2023-08-30T10:00:49;21.10;99.90
10702;DHT22;5402;50.004;8.246;2023-08-30T10:03:18;21.30;99.90
10702;DHT22;5402;50.004;8.246;2023-08-30T10:05:46;21.30;99.90
10702;DHT22;5402;50.004;8.246;2023-08-30T10:08:14;21.10;99.90
10702;DHT22;5402;50.004;8.246;2023-08-30T10:10:41;21.20;99.90
10702;DHT22;5402;50.004;8.246;2023-08-30T10:13:07;21.20;99.90
10702;DHT22;5402;50.004;8.246;2023-08-30T10:15:41;20.90;99.90
10702;DHT22;5402;50.004;8.246;2023-08-30T10:18:11;20.90;99.90
10702;DHT22;5402;50.004;8.246;2023-08-30T10:20:41;21.20;99.90
10702;DHT22;5402;50.004;8.246;2023-08-30T10:23:10;21.40;99.90
10702;DHT22;5402;50.004;8.246;2023-08-30T10:25:38;21.40;99.90
10702;DHT22;5402;50.004;8.246;2023-08-30T10:28:06;21.40;99.90
10702;DHT22;5402;50.004;8.246;2023-08-30T10:30:33;21.30;99.90
10702;DHT22;5402;50.004;8.246;2023-08-30T10:33:00;21.20;99.90
10702;DHT22;5402;50.004;8.246;2023-08-30T10:35:29;21.30;99.90
10702;DHT22;5402;50.004;8.246;2023-08-30T10:37:58;21.40;99.90
10702;DHT22;5402;50.004;8.246;2023-08-30T10:40:25;21.60;99.90
10702;DHT22;5402;50.004;8.246;2023-08-30T10:42:59;21.50;99.90
10702;DHT22;5402;50.004;8.246;2023-08-30T10:45:26;21.40;99.90
10702;DHT22;5402;50.004;8.246;2023-08-30T10:47:55;21.40;99.90
10702;DHT22;5402;50.004;8.246;2023-08-30T10:50:28;21.20;99.90
10702;DHT22;5402;50.004;8.246;2023-08-30T10:52:57;21.10;99.90
10702;DHT22;5402;50.004;8.246;2023-08-30T10:55:24;21.00;99.90
10702;DHT22;5402;50.004;8.246;2023-08-30T10:58:00;21.10;99.90
10702;DHT22;5402;50.004;8.246;2023-08-30T11:00:28;21.40;99.90
10702;DHT22;5402;50.004;8.246;2023-08-30T11:02:56;21.70;99.90
10702;DHT22;5402;50.004;8.246;2023-08-30T11:05:25;21.90;99.90
10702;DHT22;5402;50.004;8.246;2023-08-30T11:07:53;22.10;99.90
10702;DHT22;5402;50.004;8.246;2023-08-30T11:10:21;22.10;99.90
10702;DHT22;5402;50.004;8.246;2023-08-30T11:12:49;21.80;99.90
10702;DHT22;5402;50.004;8.246;2023-08-30T11:15:16;21.50;99.90
10702;DHT22;5402;50.004;8.246;2023-08-30T11:17:43;21.10;99.90
10702;DHT22;5402;50.004;8.246;2023-08-30T11:20:12;20.90;99.90
10702;DHT22;5402;50.004;8.246;2023-08-30T11:22:40;21.10;99.90
10702;DHT22;5402;50.004;8.246;2023-08-30T11:25:09;21.30;99.90
10702;DHT22;5402;50.004;8.246;2023-08-30T11:27:37;21.70;99.90
10702;DHT22;5402;50.004;8.246;2023-08-30T11:30:05;21.70;99.90
10702;DHT22;5402;50.004;8.246;2023-08-30T11:32:36;21.70;99.90
10702;DHT22;5402;50.004;8.246;2023-08-30T11:35:06;22.00;99.90
10702;DHT22;5402;50.004;8.246;2023-08-30T11:37:37;22.10;99.90
10702;DHT22;5402;50.004;8.246;2023-08-30T11:40:05;22.00;99.90
10702;DHT22;5402;50.004;8.246;2023-08-30T11:42:32;22.20;99.90
10702;DHT22;5402;50.004;8.246;2023-08-30T11:45:01;22.20;99.90
10702;DHT22;5402;50.004;8.246;2023-08-30T11:47:30;22.40;99.90
10702;DHT22;5402;50.004;8.246;2023-08-30T11:49:57;22.50;99.90
10702;DHT22;5402;50.004;8.246;2023-08-30T11:52:25;23.00;99.90
10702;DHT22;5402;50.004;8.246;2023-08-30T11:54:53;22.80;99.90
10702;DHT22;5402;50.004;8.246;2023-08-30T11:57:20;22.80;99.90
10702;DHT22;5402;50.004;8.246;2023-08-30T11:59:47;22.60;99.90
10702;DHT22;5402;50.004;8.246;2023-08-30T12:02:18;22.70;99.90
10702;DHT22;5402;50.004;8.246;2023-08-30T12:04:45;22.60;99.90
10702;DHT22;5402;50.004;8.246;2023-08-30T12:07:21;22.40;99.90
10702;DHT22;5402;50.004;8.246;2023-08-30T12:09:49;22.50;99.90
10702;DHT22;5402;50.004;8.246;2023-08-30T12:12:16;22.60;99.90
10702;DHT22;5402;50.004;8.246;2023-08-30T12:14:54;22.60;99.90
10702;DHT22;5402;50.004;8.246;2023-08-30T12:17:25;22.80;99.90
10702;DHT22;5402;50.004;8.246;2023-08-30T12:19:56;22.70;99.90
10702;DHT22;5402;50.004;8.246;2023-08-30T12:22:36;22.50;99.90
10702;DHT22;5402;50.004;8.246;2023-08-30T12:25:04;22.80;99.90
10702;DHT22;5402;50.004;8.246;2023-08-30T12:27:42;22.80;99.90
10702;DHT22;5402;50.004;8.246;2023-08-30T12:30:09;22.50;99.90
10702;DHT22;5402;50.004;8.246;2023-08-30T12:32:49;22.40;99.90
10702;DHT22;5402;50.004;8.246;2023-08-30T12:35:16;22.00;99.90
10702;DHT22;5402;50.004;8.246;2023-08-30T12:37:45;22.20;99.90
10702;DHT22;5402;50.004;8.246;2023-08-30T12:40:12;22.20;99.90
10702;DHT22;5402;50.004;8.246;2023-08-30T12:42:39;22.40;99.90
10702;DHT22;5402;50.004;8.246;2023-08-30T12:45:06;22.40;99.90
10702;DHT22;5402;50.004;8.246;2023-08-30T12:47:33;22.50;99.90
10702;DHT22;5402;50.004;8.246;2023-08-30T12:50:01;22.60;99.90
10702;DHT22;5402;50.004;8.246;2023-08-30T12:52:28;22.70;99.90
10702;DHT22;5402;50.004;8.246;2023-08-30T12:54:55;22.70;99.90
10702;DHT22;5402;50.004;8.246;2023-08-30T12:57:21;22.80;99.90
10702;DHT22;5402;50.004;8.246;2023-08-30T12:59:49;22.80;99.90
10702;DHT22;5402;50.004;8.246;2023-08-30T13:02:18;22.90;99.90
10702;DHT22;5402;50.004;8.246;2023-08-30T13:04:44;22.80;99.90
10702;DHT22;5402;50.004;8.246;2023-08-30T13:07:12;22.70;99.90
10702;DHT22;5402;50.004;8.246;2023-08-30T13:09:39;22.60;99.90
10702;DHT22;5402;50.004;8.246;2023-08-30T13:12:06;22.50;99.90
10702;DHT22;5402;50.004;8.246;2023-08-30T13:14:35;22.40;99.90
10702;DHT22;5402;50.004;8.246;2023-08-30T13:17:01;22.50;99.90
10702;DHT22;5402;50.004;8.246;2023-08-30T13:19:28;22.70;99.90
10702;DHT22;5402;50.004;8.246;2023-08-30T13:21:56;23.00;99.90
10702;DHT22;5402;50.004;8.246;2023-08-30T13:24:24;22.90;99.90
10702;DHT22;5402;50.004;8.246;2023-08-30T13:26:51;22.80;99.90
10702;DHT22;5402;50.004;8.246;2023-08-30T13:29:18;22.60;99.90
10702;DHT22;5402;50.004;8.246;2023-08-30T13:31:45;22.40;99.90
10702;DHT22;5402;50.004;8.246;2023-08-30T13:34:12;22.20;99.90
10702;DHT22;5402;50.004;8.246;2023-08-30T13:36:38;22.10;99.90
10702;DHT22;5402;50.004;8.246;2023-08-30T13:39:05;21.80;99.90
10702;DHT22;5402;50.004;8.246;2023-08-30T13:41:36;21.70;99.90
10702;DHT22;5402;50.004;8.246;2023-08-30T13:44:05;21.70;99.90
10702;DHT22;5402;50.004;8.246;2023-08-30T13:46:32;21.90;99.90
10702;DHT22;5402;50.004;8.246;2023-08-30T13:48:59;21.90;99.90
10702;DHT22;5402;50.004;8.246;2023-08-30T13:51:26;22.00;99.90
10702;DHT22;5402;50.004;8.246;2023-08-30T13:53:53;22.20;99.90
10702;DHT22;5402;50.004;8.246;2023-08-30T13:56:20;22.20;99.90
10702;DHT22;5402;50.004;8.246;2023-08-30T13:58:48;22.40;99.90
10702;DHT22;5402;50.004;8.246;2023-08-30T14:01:16;22.30;99.90
10702;DHT22;5402;50.004;8.246;2023-08-30T14:03:43;22.30;99.90
10702;DHT22;5402;50.004;8.246;2023-08-30T14:06:10;22.20;99.90
10702;DHT22;5402;50.004;8.246;2023-08-30T14:08:37;22.30;99.90
10702;DHT22;5402;50.004;8.246;2023-08-30T14:11:04;22.30;99.90
10702;DHT22;5402;50.004;8.246;2023-08-30T14:13:31;22.30;99.90
10702;DHT22;5402;50.004;8.246;2023-08-30T14:16:00;22.20;99.90
10702;DHT22;5402;50.004;8.246;2023-08-30T14:18:28;22.20;99.90
10702;DHT22;5402;50.004;8.246;2023-08-30T14:20:56;22.20;99.90
10702;DHT22;5402;50.004;8.246;2023-08-30T14:23:24;22.00;99.90
10702;DHT22;5402;50.004;8.246;2023-08-30T14:25:55;22.10;99.90
10702;DHT22;5402;50.004;8.246;2023-08-30T14:28:23;22.30;99.90
10702;DHT22;5402;50.004;8.246;2023-08-30T14:30:50;22.10;99.90
10702;DHT22;5402;50.004;8.246;2023-08-30T14:33:18;22.00;99.90
10702;DHT22;5402;50.004;8.246;2023-08-30T14:35:45;22.10;99.90
10702;DHT22;5402;50.004;8.246;2023-08-30T14:38:12;22.10;99.90
10702;DHT22;5402;50.004;8.246;2023-08-30T14:40:38;22.00;99.90
10702;DHT22;5402;50.004;8.246;2023-08-30T14:43:06;22.00;99.90
10702;DHT22;5402;50.004;8.246;2023-08-30T14:45:33;22.20;99.90
10702;DHT22;5402;50.004;8.246;2023-08-30T14:48:05;22.40;99.90
10702;DHT22;5402;50.004;8.246;2023-08-30T14:50:35;22.60;99.90
10702;DHT22;5402;50.004;8.246;2023-08-30T14:53:02;22.50;99.90
10702;DHT22;5402;50.004;8.246;2023-08-30T14:55:28;22.60;99.90
10702;DHT22;5402;50.004;8.246;2023-08-30T14:57:55;22.80;99.90
10702;DHT22;5402;50.004;8.246;2023-08-30T15:00:22;22.80;99.90
10702;DHT22;5402;50.004;8.246;2023-08-30T15:02:49;22.60;99.90
10702;DHT22;5402;50.004;8.246;2023-08-30T15:05:17;22.70;99.90
10702;DHT22;5402;50.004;8.246;2023-08-30T15:07:45;22.30;99.90
10702;DHT22;5402;50.004;8.246;2023-08-30T15:10:11;22.20;99.90
10702;DHT22;5402;50.004;8.246;2023-08-30T15:12:38;22.10;99.90
10702;DHT22;5402;50.004;8.246;2023-08-30T15:15:06;22.30;99.90
10702;DHT22;5402;50.004;8.246;2023-08-30T15:17:33;22.30;99.90
10702;DHT22;5402;50.004;8.246;2023-08-30T15:20:00;22.20;99.90
10702;DHT22;5402;50.004;8.246;2023-08-30T15:22:26;22.10;99.90
10702;DHT22;5402;50.004;8.246;2023-08-30T15:24:54;22.00;99.90
10702;DHT22;5402;50.004;8.246;2023-08-30T15:27:21;21.90;99.90
10702;DHT22;5402;50.004;8.246;2023-08-30T15:29:48;21.90;99.90
10702;DHT22;5402;50.004;8.246;2023-08-30T15:32:17;21.90;99.90
10702;DHT22;5402;50.004;8.246;2023-08-30T15:34:44;21.90;99.90
10702;DHT22;5402;50.004;8.246;2023-08-30T15:37:10;22.00;99.90
10702;DHT22;5402;50.004;8.246;2023-08-30T15:39:38;21.80;99.90
10702;DHT22;5402;50.004;8.246;2023-08-30T15:42:07;21.60;99.90
10702;DHT22;5402;50.004;8.246;2023-08-30T15:44:34;21.60;99.90
10702;DHT22;5402;50.004;8.246;2023-08-30T15:47:00;21.60;99.90
10702;DHT22;5402;50.004;8.246;2023-08-30T15:49:27;21.60;99.90